sensor_id;sensor_type;location;lat;lon;timestamp;P1;durP1;ratioP1;P2;durP2;ratioP2
65871;SDS011;52653;50.080;21.992;2023-01-09T00:01:56;35.00;;;23.40;;
65871;SDS011;52653;50.080;21.992;2023-01-09T00:04:47;27.40;;;19.80;;
65871;SDS011;52653;50.080;21.992;2023-01-09T00:07:41;25.80;;;18.80;;
65871;SDS011;52653;50.080;21.992;2023-01-09T00:10:34;24.70;;;19.50;;
65871;SDS011;52653;50.080;21.992;2023-01-09T00:13:27;25.80;;;19.00;;
65871;SDS011;52653;50.080;21.992;2023-01-09T00:16:22;24.40;;;17.80;;
65871;SDS011;52653;50.080;21.992;2023-01-09T00:19:15;24.60;;;17.20;;
65871;SDS011;52653;50.080;21.992;2023-01-09T00:21:49;21.90;;;15.50;;
65871;SDS011;52653;50.080;21.992;2023-01-09T00:24:41;21.30;;;16.00;;
65871;SDS011;52653;50.080;21.992;2023-01-09T00:27:34;22.60;;;15.60;;
65871;SDS011;52653;50.080;21.992;2023-01-09T00:30:28;18.40;;;14.40;;
65871;SDS011;52653;50.080;21.992;2023-01-09T00:33:07;22.00;;;16.30;;
65871;SDS011;52653;50.080;21.992;2023-01-09T00:36:01;33.70;;;22.80;;
65871;SDS011;52653;50.080;21.992;2023-01-09T00:38:55;36.00;;;25.10;;
65871;SDS011;52653;50.080;21.992;2023-01-09T00:41:49;35.70;;;25.70;;
65871;SDS011;52653;50.080;21.992;2023-01-09T00:44:35;38.00;;;26.80;;
65871;SDS011;52653;50.080;21.992;2023-01-09T00:47:32;35.50;;;24.80;;
65871;SDS011;52653;50.080;21.992;2023-01-09T00:50:29;33.80;;;22.60;;
65871;SDS011;52653;50.080;21.992;2023-01-09T00:53:25;30.60;;;20.40;;
65871;SDS011;52653;50.080;21.992;2023-01-09T00:56:19;39.00;;;26.10;;
65871;SDS011;52653;50.080;21.992;2023-01-09T00:59:14;57.90;;;37.10;;
65871;SDS011;52653;50.080;21.992;2023-01-09T01:02:01;34.50;;;24.30;;
65871;SDS011;52653;50.080;21.992;2023-01-09T01:04:55;28.90;;;20.10;;
65871;SDS011;52653;50.080;21.992;2023-01-09T01:08:10;42.20;;;26.90;;
65871;SDS011;52653;50.080;21.992;2023-01-09T01:11:04;37.00;;;24.70;;
65871;SDS011;52653;50.080;21.992;2023-01-09T01:13:59;31.80;;;20.40;;
65871;SDS011;52653;50.080;21.992;2023-01-09T01:16:53;27.00;;;18.60;;
65871;SDS011;52653;50.080;21.992;2023-01-09T01:19:46;38.10;;;24.80;;
65871;SDS011;52653;50.080;21.992;2023-01-09T01:22:40;34.30;;;23.20;;
65871;SDS011;52653;50.080;21.992;2023-01-09T01:25:34;47.50;;;30.50;;
65871;SDS011;52653;50.080;21.992;2023-01-09T01:28:30;36.30;;;24.90;;
65871;SDS011;52653;50.080;21.992;2023-01-09T01:31:23;25.80;;;18.90;;
65871;SDS011;52653;50.080;21.992;2023-01-09T01:34:19;33.40;;;24.20;;
65871;SDS011;52653;50.080;21.992;2023-01-09T01:37:13;44.40;;;29.40;;
65871;SDS011;52653;50.080;21.992;2023-01-09T01:40:07;28.70;;;19.40;;
65871;SDS011;52653;50.080;21.992;2023-01-09T01:43:01;47.70;;;31.00;;
65871;SDS011;52653;50.080;21.992;2023-01-09T01:45:48;47.50;;;28.20;;
65871;SDS011;52653;50.080;21.992;2023-01-09T01:48:41;24.40;;;17.40;;
65871;SDS011;52653;50.080;21.992;2023-01-09T01:51:37;24.40;;;17.30;;
65871;SDS011;52653;50.080;21.992;2023-01-09T01:54:34;32.00;;;21.70;;
65871;SDS011;52653;50.080;21.992;2023-01-09T01:57:22;25.30;;;17.20;;
65871;SDS011;52653;50.080;21.992;2023-01-09T02:00:15;33.40;;;23.60;;
65871;SDS011;52653;50.080;21.992;2023-01-09T02:03:13;26.10;;;18.30;;
65871;SDS011;52653;50.080;21.992;2023-01-09T02:06:09;31.00;;;20.70;;
65871;SDS011;52653;50.080;21.992;2023-01-09T02:09:04;23.50;;;17.10;;
65871;SDS011;52653;50.080;21.992;2023-01-09T02:11:59;29.10;;;19.60;;
65871;SDS011;52653;50.080;21.992;2023-01-09T02:15:13;31.90;;;23.20;;
65871;SDS011;52653;50.080;21.992;2023-01-09T02:18:09;22.70;;;16.80;;
65871;SDS011;52653;50.080;21.992;2023-01-09T02:21:23;29.10;;;20.80;;
65871;SDS011;52653;50.080;21.992;2023-01-09T02:24:39;22.90;;;16.80;;
65871;SDS011;52653;50.080;21.992;2023-01-09T02:28:06;23.00;;;17.40;;
65871;SDS011;52653;50.080;21.992;2023-01-09T02:31:19;22.30;;;15.90;;
65871;SDS011;52653;50.080;21.992;2023-01-09T02:34:20;18.30;;;15.10;;
65871;SDS011;52653;50.080;21.992;2023-01-09T02:37:23;22.20;;;15.60;;
65871;SDS011;52653;50.080;21.992;2023-01-09T02:40:24;21.10;;;15.60;;
65871;SDS011;52653;50.080;21.992;2023-01-09T02:43:19;19.00;;;15.70;;
65871;SDS011;52653;50.080;21.992;2023-01-09T02:46:16;19.30;;;15.30;;
65871;SDS011;52653;50.080;21.992;2023-01-09T02:48:55;18.20;;;14.80;;
65871;SDS011;52653;50.080;21.992;2023-01-09T02:51:50;20.50;;;15.50;;
65871;SDS011;52653;50.080;21.992;2023-01-09T02:54:50;21.50;;;15.90;;
65871;SDS011;52653;50.080;21.992;2023-01-09T02:57:53;18.90;;;14.80;;
65871;SDS011;52653;50.080;21.992;2023-01-09T03:00:56;19.80;;;15.00;;
65871;SDS011;52653;50.080;21.992;2023-01-09T03:04:00;17.80;;;14.50;;
65871;SDS011;52653;50.080;21.992;2023-01-09T03:07:02;19.30;;;14.20;;
65871;SDS011;52653;50.080;21.992;2023-01-09T03:10:02;17.90;;;14.40;;
65871;SDS011;52653;50.080;21.992;2023-01-09T03:13:00;17.70;;;14.80;;
65871;SDS011;52653;50.080;21.992;2023-01-09T03:15:55;19.80;;;15.40;;
65871;SDS011;52653;50.080;21.992;2023-01-09T03:18:51;17.30;;;14.60;;
65871;SDS011;52653;50.080;21.992;2023-01-09T03:21:46;18.80;;;15.00;;
65871;SDS011;52653;50.080;21.992;2023-01-09T03:24:40;18.90;;;14.30;;
65871;SDS011;52653;50.080;21.992;2023-01-09T03:27:18;17.60;;;14.20;;
65871;SDS011;52653;50.080;21.992;2023-01-09T03:30:12;17.50;;;14.40;;
65871;SDS011;52653;50.080;21.992;2023-01-09T03:33:06;17.30;;;13.80;;
65871;SDS011;52653;50.080;21.992;2023-01-09T03:35:59;16.90;;;13.70;;
65871;SDS011;52653;50.080;21.992;2023-01-09T03:38:54;17.30;;;13.60;;
65871;SDS011;52653;50.080;21.992;2023-01-09T03:41:46;16.80;;;12.90;;
65871;SDS011;52653;50.080;21.992;2023-01-09T03:44:40;17.50;;;14.00;;
65871;SDS011;52653;50.080;21.992;2023-01-09T03:47:33;18.20;;;14.60;;
65871;SDS011;52653;50.080;21.992;2023-01-09T03:50:27;18.80;;;15.20;;
65871;SDS011;52653;50.080;21.992;2023-01-09T03:53:20;18.20;;;14.70;;
65871;SDS011;52653;50.080;21.992;2023-01-09T03:56:15;18.30;;;14.70;;
65871;SDS011;52653;50.080;21.992;2023-01-09T03:59:06;18.70;;;14.50;;
65871;SDS011;52653;50.080;21.992;2023-01-09T04:01:58;17.30;;;13.80;;
65871;SDS011;52653;50.080;21.992;2023-01-09T04:04:53;18.00;;;14.90;;
65871;SDS011;52653;50.080;21.992;2023-01-09T04:07:39;18.30;;;13.80;;
65871;SDS011;52653;50.080;21.992;2023-01-09T04:10:32;16.70;;;13.80;;
65871;SDS011;52653;50.080;21.992;2023-01-09T04:13:25;17.80;;;13.90;;
65871;SDS011;52653;50.080;21.992;2023-01-09T04:16:18;18.20;;;15.20;;
65871;SDS011;52653;50.080;21.992;2023-01-09T04:19:11;18.60;;;13.90;;
65871;SDS011;52653;50.080;21.992;2023-01-09T04:21:46;18.50;;;14.60;;
65871;SDS011;52653;50.080;21.992;2023-01-09T04:24:40;16.10;;;13.30;;
65871;SDS011;52653;50.080;21.992;2023-01-09T04:27:26;16.50;;;13.80;;
65871;SDS011;52653;50.080;21.992;2023-01-09T04:30:19;17.20;;;13.40;;
65871;SDS011;52653;50.080;21.992;2023-01-09T04:33:12;16.20;;;13.10;;
65871;SDS011;52653;50.080;21.992;2023-01-09T04:36:06;16.30;;;13.20;;
65871;SDS011;52653;50.080;21.992;2023-01-09T04:38:53;17.50;;;13.80;;
65871;SDS011;52653;50.080;21.992;2023-01-09T04:41:46;19.70;;;13.70;;
65871;SDS011;52653;50.080;21.992;2023-01-09T04:44:31;17.40;;;13.10;;
65871;SDS011;52653;50.080;21.992;2023-01-09T04:47:19;16.40;;;13.60;;
65871;SDS011;52653;50.080;21.992;2023-01-09T04:50:12;16.70;;;14.00;;
65871;SDS011;52653;50.080;21.992;2023-01-09T04:53:07;15.80;;;12.90;;
65871;SDS011;52653;50.080;21.992;2023-01-09T04:56:00;17.10;;;13.80;;
65871;SDS011;52653;50.080;21.992;2023-01-09T04:58:52;18.60;;;14.00;;
65871;SDS011;52653;50.080;21.992;2023-01-09T05:01:47;16.80;;;14.00;;
65871;SDS011;52653;50.080;21.992;2023-01-09T05:04:43;18.20;;;13.20;;
65871;SDS011;52653;50.080;21.992;2023-01-09T05:07:29;18.10;;;13.00;;
65871;SDS011;52653;50.080;21.992;2023-01-09T05:10:22;17.10;;;13.30;;
65871;SDS011;52653;50.080;21.992;2023-01-09T05:13:16;18.40;;;14.80;;
65871;SDS011;52653;50.080;21.992;2023-01-09T05:16:09;17.50;;;14.40;;
65871;SDS011;52653;50.080;21.992;2023-01-09T05:19:02;17.40;;;14.50;;
65871;SDS011;52653;50.080;21.992;2023-01-09T05:21:55;17.10;;;13.90;;
65871;SDS011;52653;50.080;21.992;2023-01-09T05:24:41;18.60;;;14.00;;
65871;SDS011;52653;50.080;21.992;2023-01-09T05:27:34;18.10;;;14.60;;
65871;SDS011;52653;50.080;21.992;2023-01-09T05:30:20;20.60;;;14.80;;
65871;SDS011;52653;50.080;21.992;2023-01-09T05:33:12;18.10;;;14.40;;
65871;SDS011;52653;50.080;21.992;2023-01-09T05:36:06;17.40;;;14.70;;
65871;SDS011;52653;50.080;21.992;2023-01-09T05:38:59;19.00;;;14.50;;
65871;SDS011;52653;50.080;21.992;2023-01-09T05:41:54;20.40;;;16.30;;
65871;SDS011;52653;50.080;21.992;2023-01-09T05:44:47;18.00;;;15.40;;
65871;SDS011;52653;50.080;21.992;2023-01-09T05:47:33;18.10;;;15.40;;
65871;SDS011;52653;50.080;21.992;2023-01-09T05:50:26;19.30;;;15.80;;
65871;SDS011;52653;50.080;21.992;2023-01-09T05:53:20;20.40;;;16.10;;
65871;SDS011;52653;50.080;21.992;2023-01-09T05:56:06;19.90;;;16.50;;
65871;SDS011;52653;50.080;21.992;2023-01-09T05:59:00;21.50;;;17.50;;
65871;SDS011;52653;50.080;21.992;2023-01-09T06:01:53;20.80;;;16.10;;
65871;SDS011;52653;50.080;21.992;2023-01-09T06:04:47;19.00;;;16.00;;
65871;SDS011;52653;50.080;21.992;2023-01-09T06:07:32;19.50;;;16.10;;
65871;SDS011;52653;50.080;21.992;2023-01-09T06:10:28;19.70;;;15.40;;
65871;SDS011;52653;50.080;21.992;2023-01-09T06:13:19;21.00;;;15.90;;
65871;SDS011;52653;50.080;21.992;2023-01-09T06:16:13;19.90;;;15.60;;
65871;SDS011;52653;50.080;21.992;2023-01-09T06:19:06;20.00;;;14.70;;
65871;SDS011;52653;50.080;21.992;2023-01-09T06:21:58;21.60;;;15.60;;
65871;SDS011;52653;50.080;21.992;2023-01-09T06:24:51;19.80;;;14.60;;
65871;SDS011;52653;50.080;21.992;2023-01-09T06:27:34;19.70;;;14.10;;
65871;SDS011;52653;50.080;21.992;2023-01-09T06:30:28;18.50;;;14.20;;
65871;SDS011;52653;50.080;21.992;2023-01-09T06:33:22;17.90;;;13.90;;
65871;SDS011;52653;50.080;21.992;2023-01-09T06:36:08;19.30;;;14.00;;
65871;SDS011;52653;50.080;21.992;2023-01-09T06:39:02;19.20;;;14.20;;
65871;SDS011;52653;50.080;21.992;2023-01-09T06:41:48;15.70;;;12.90;;
65871;SDS011;52653;50.080;21.992;2023-01-09T06:44:41;19.50;;;14.60;;
65871;SDS011;52653;50.080;21.992;2023-01-09T06:47:18;17.00;;;14.20;;
65871;SDS011;52653;50.080;21.992;2023-01-09T06:50:12;18.80;;;13.60;;
65871;SDS011;52653;50.080;21.992;2023-01-09T06:53:00;17.80;;;13.10;;
65871;SDS011;52653;50.080;21.992;2023-01-09T06:55:53;17.60;;;13.30;;
65871;SDS011;52653;50.080;21.992;2023-01-09T06:58:46;16.70;;;12.30;;
65871;SDS011;52653;50.080;21.992;2023-01-09T07:01:39;17.50;;;13.30;;
65871;SDS011;52653;50.080;21.992;2023-01-09T07:04:32;18.10;;;13.30;;
65871;SDS011;52653;50.080;21.992;2023-01-09T07:07:25;16.50;;;13.00;;
65871;SDS011;52653;50.080;21.992;2023-01-09T07:10:11;16.10;;;12.50;;
65871;SDS011;52653;50.080;21.992;2023-01-09T07:13:05;15.30;;;11.20;;
65871;SDS011;52653;50.080;21.992;2023-01-09T07:15:58;14.40;;;10.80;;
65871;SDS011;52653;50.080;21.992;2023-01-09T07:18:46;14.00;;;10.90;;
65871;SDS011;52653;50.080;21.992;2023-01-09T07:21:39;13.40;;;10.60;;
65871;SDS011;52653;50.080;21.992;2023-01-09T07:24:32;14.50;;;10.70;;
65871;SDS011;52653;50.080;21.992;2023-01-09T07:27:25;15.20;;;11.20;;
65871;SDS011;52653;50.080;21.992;2023-01-09T07:30:11;15.20;;;11.10;;
65871;SDS011;52653;50.080;21.992;2023-01-09T07:33:06;15.30;;;11.60;;
65871;SDS011;52653;50.080;21.992;2023-01-09T07:36:01;15.40;;;11.60;;
65871;SDS011;52653;50.080;21.992;2023-01-09T07:38:47;14.90;;;11.80;;
65871;SDS011;52653;50.080;21.992;2023-01-09T07:41:41;14.30;;;10.70;;
65871;SDS011;52653;50.080;21.992;2023-01-09T07:44:33;14.00;;;10.60;;
65871;SDS011;52653;50.080;21.992;2023-01-09T07:47:18;13.40;;;10.40;;
65871;SDS011;52653;50.080;21.992;2023-01-09T07:50:11;14.50;;;10.40;;
65871;SDS011;52653;50.080;21.992;2023-01-09T07:52:57;13.80;;;10.50;;
65871;SDS011;52653;50.080;21.992;2023-01-09T07:55:50;14.40;;;10.70;;
65871;SDS011;52653;50.080;21.992;2023-01-09T07:58:43;13.10;;;9.80;;
65871;SDS011;52653;50.080;21.992;2023-01-09T08:01:36;13.10;;;10.10;;
65871;SDS011;52653;50.080;21.992;2023-01-09T08:04:33;13.80;;;10.10;;
65871;SDS011;52653;50.080;21.992;2023-01-09T08:07:06;13.60;;;9.70;;
65871;SDS011;52653;50.080;21.992;2023-01-09T08:09:59;12.10;;;9.10;;
65871;SDS011;52653;50.080;21.992;2023-01-09T08:12:42;12.30;;;9.50;;
65871;SDS011;52653;50.080;21.992;2023-01-09T08:15:29;12.40;;;9.40;;
65871;SDS011;52653;50.080;21.992;2023-01-09T08:18:17;13.00;;;10.20;;
65871;SDS011;52653;50.080;21.992;2023-01-09T08:20:57;13.40;;;10.00;;
65871;SDS011;52653;50.080;21.992;2023-01-09T08:23:50;13.90;;;10.10;;
65871;SDS011;52653;50.080;21.992;2023-01-09T08:26:26;12.40;;;9.30;;
65871;SDS011;52653;50.080;21.992;2023-01-09T08:29:18;12.80;;;9.60;;
65871;SDS011;52653;50.080;21.992;2023-01-09T08:32:02;13.00;;;8.90;;
65871;SDS011;52653;50.080;21.992;2023-01-09T08:34:55;10.80;;;7.60;;
65871;SDS011;52653;50.080;21.992;2023-01-09T08:37:28;11.40;;;7.70;;
65871;SDS011;52653;50.080;21.992;2023-01-09T08:40:13;9.80;;;7.60;;
65871;SDS011;52653;50.080;21.992;2023-01-09T08:42:56;11.20;;;7.50;;
65871;SDS011;52653;50.080;21.992;2023-01-09T08:46:04;11.10;;;7.20;;
65871;SDS011;52653;50.080;21.992;2023-01-09T08:49:23;9.70;;;7.80;;
65871;SDS011;52653;50.080;21.992;2023-01-09T08:52:06;10.10;;;6.60;;
65871;SDS011;52653;50.080;21.992;2023-01-09T08:54:49;9.70;;;7.50;;
65871;SDS011;52653;50.080;21.992;2023-01-09T08:57:47;9.60;;;7.00;;
65871;SDS011;52653;50.080;21.992;2023-01-09T09:00:33;8.40;;;6.60;;
65871;SDS011;52653;50.080;21.992;2023-01-09T09:03:08;9.40;;;6.30;;
65871;SDS011;52653;50.080;21.992;2023-01-09T09:06:02;9.80;;;6.80;;
65871;SDS011;52653;50.080;21.992;2023-01-09T09:08:55;11.00;;;7.90;;
65871;SDS011;52653;50.080;21.992;2023-01-09T09:11:41;9.50;;;7.10;;
65871;SDS011;52653;50.080;21.992;2023-01-09T09:14:25;10.10;;;7.90;;
65871;SDS011;52653;50.080;21.992;2023-01-09T09:17:35;9.10;;;7.40;;
65871;SDS011;52653;50.080;21.992;2023-01-09T09:22:54;10.00;;;7.10;;
65871;SDS011;52653;50.080;21.992;2023-01-09T09:25:48;11.00;;;7.50;;
65871;SDS011;52653;50.080;21.992;2023-01-09T09:28:42;10.20;;;7.50;;
65871;SDS011;52653;50.080;21.992;2023-01-09T09:31:36;11.60;;;8.30;;
65871;SDS011;52653;50.080;21.992;2023-01-09T09:34:30;9.80;;;7.30;;
65871;SDS011;52653;50.080;21.992;2023-01-09T09:37:21;12.50;;;7.80;;
65871;SDS011;52653;50.080;21.992;2023-01-09T09:40:10;10.90;;;7.70;;
65871;SDS011;52653;50.080;21.992;2023-01-09T09:43:15;11.00;;;8.70;;
65871;SDS011;52653;50.080;21.992;2023-01-09T09:46:43;13.00;;;8.90;;
65871;SDS011;52653;50.080;21.992;2023-01-09T09:49:34;13.00;;;9.20;;
65871;SDS011;52653;50.080;21.992;2023-01-09T09:52:28;12.10;;;8.70;;
65871;SDS011;52653;50.080;21.992;2023-01-09T09:55:28;10.90;;;8.00;;
65871;SDS011;52653;50.080;21.992;2023-01-09T09:58:10;11.00;;;8.00;;
65871;SDS011;52653;50.080;21.992;2023-01-09T10:01:11;11.70;;;8.50;;
65871;SDS011;52653;50.080;21.992;2023-01-09T10:04:09;11.90;;;8.20;;
65871;SDS011;52653;50.080;21.992;2023-01-09T10:07:06;11.00;;;7.90;;
65871;SDS011;52653;50.080;21.992;2023-01-09T10:10:05;11.90;;;8.50;;
65871;SDS011;52653;50.080;21.992;2023-01-09T10:13:06;12.10;;;7.70;;
65871;SDS011;52653;50.080;21.992;2023-01-09T10:16:19;10.80;;;8.40;;
65871;SDS011;52653;50.080;21.992;2023-01-09T10:22:32;11.80;;;8.60;;
65871;SDS011;52653;50.080;21.992;2023-01-09T10:25:37;13.70;;;8.90;;
65871;SDS011;52653;50.080;21.992;2023-01-09T10:28:46;13.20;;;8.80;;
65871;SDS011;52653;50.080;21.992;2023-01-09T10:31:37;11.00;;;8.20;;
65871;SDS011;52653;50.080;21.992;2023-01-09T10:34:44;12.20;;;7.70;;
65871;SDS011;52653;50.080;21.992;2023-01-09T10:37:47;11.10;;;7.90;;
65871;SDS011;52653;50.080;21.992;2023-01-09T10:40:43;10.40;;;7.70;;
65871;SDS011;52653;50.080;21.992;2023-01-09T10:43:43;11.40;;;8.60;;
65871;SDS011;52653;50.080;21.992;2023-01-09T10:46:34;11.60;;;8.50;;
65871;SDS011;52653;50.080;21.992;2023-01-09T10:49:34;11.70;;;8.80;;
65871;SDS011;52653;50.080;21.992;2023-01-09T10:52:31;12.70;;;8.60;;
65871;SDS011;52653;50.080;21.992;2023-01-09T10:55:29;10.70;;;8.30;;
65871;SDS011;52653;50.080;21.992;2023-01-09T10:58:28;14.00;;;9.70;;
65871;SDS011;52653;50.080;21.992;2023-01-09T11:01:23;13.80;;;9.30;;
65871;SDS011;52653;50.080;21.992;2023-01-09T11:04:19;12.70;;;8.90;;
65871;SDS011;52653;50.080;21.992;2023-01-09T11:07:18;12.00;;;8.60;;
65871;SDS011;52653;50.080;21.992;2023-01-09T11:10:10;12.40;;;8.30;;
65871;SDS011;52653;50.080;21.992;2023-01-09T11:13:00;12.70;;;8.30;;
65871;SDS011;52653;50.080;21.992;2023-01-09T11:16:16;10.80;;;7.90;;
65871;SDS011;52653;50.080;21.992;2023-01-09T11:19:12;12.70;;;8.30;;
65871;SDS011;52653;50.080;21.992;2023-01-09T11:22:07;10.30;;;8.10;;
65871;SDS011;52653;50.080;21.992;2023-01-09T11:25:11;12.60;;;7.80;;
65871;SDS011;52653;50.080;21.992;2023-01-09T11:28:08;10.50;;;7.30;;
65871;SDS011;52653;50.080;21.992;2023-01-09T11:31:01;11.10;;;7.50;;
65871;SDS011;52653;50.080;21.992;2023-01-09T11:33:55;10.40;;;7.60;;
65871;SDS011;52653;50.080;21.992;2023-01-09T11:36:48;10.70;;;7.60;;
65871;SDS011;52653;50.080;21.992;2023-01-09T11:39:45;11.60;;;8.20;;
65871;SDS011;52653;50.080;21.992;2023-01-09T11:42:38;10.80;;;8.00;;
65871;SDS011;52653;50.080;21.992;2023-01-09T11:45:51;12.00;;;8.80;;
65871;SDS011;52653;50.080;21.992;2023-01-09T11:48:55;10.40;;;7.50;;
65871;SDS011;52653;50.080;21.992;2023-01-09T11:55:01;10.40;;;8.00;;
65871;SDS011;52653;50.080;21.992;2023-01-09T11:58:31;13.70;;;7.80;;
65871;SDS011;52653;50.080;21.992;2023-01-09T12:01:42;11.50;;;7.50;;
65871;SDS011;52653;50.080;21.992;2023-01-09T12:04:55;10.00;;;7.70;;
65871;SDS011;52653;50.080;21.992;2023-01-09T12:08:04;12.00;;;8.30;;
65871;SDS011;52653;50.080;21.992;2023-01-09T12:14:16;11.30;;;8.40;;
65871;SDS011;52653;50.080;21.992;2023-01-09T12:17:38;11.00;;;8.60;;
65871;SDS011;52653;50.080;21.992;2023-01-09T12:21:03;11.60;;;8.40;;
65871;SDS011;52653;50.080;21.992;2023-01-09T12:24:14;10.50;;;7.40;;
65871;SDS011;52653;50.080;21.992;2023-01-09T12:27:18;11.00;;;7.10;;
65871;SDS011;52653;50.080;21.992;2023-01-09T12:30:26;10.60;;;7.80;;
65871;SDS011;52653;50.080;21.992;2023-01-09T12:33:32;11.50;;;8.20;;
65871;SDS011;52653;50.080;21.992;2023-01-09T12:36:43;12.90;;;8.30;;
65871;SDS011;52653;50.080;21.992;2023-01-09T12:39:49;11.20;;;8.20;;
65871;SDS011;52653;50.080;21.992;2023-01-09T12:42:46;11.50;;;8.10;;
65871;SDS011;52653;50.080;21.992;2023-01-09T12:45:48;11.00;;;7.90;;
65871;SDS011;52653;50.080;21.992;2023-01-09T12:49:03;12.20;;;8.10;;
65871;SDS011;52653;50.080;21.992;2023-01-09T12:52:00;11.90;;;8.00;;
65871;SDS011;52653;50.080;21.992;2023-01-09T12:55:00;13.10;;;8.50;;
65871;SDS011;52653;50.080;21.992;2023-01-09T12:58:02;11.10;;;7.60;;
65871;SDS011;52653;50.080;21.992;2023-01-09T13:01:07;12.30;;;7.50;;
65871;SDS011;52653;50.080;21.992;2023-01-09T13:04:23;10.30;;;7.10;;
65871;SDS011;52653;50.080;21.992;2023-01-09T13:07:14;11.00;;;7.90;;
65871;SDS011;52653;50.080;21.992;2023-01-09T13:10:03;12.40;;;7.80;;
65871;SDS011;52653;50.080;21.992;2023-01-09T13:13:09;10.50;;;7.30;;
65871;SDS011;52653;50.080;21.992;2023-01-09T13:16:09;10.60;;;7.50;;
65871;SDS011;52653;50.080;21.992;2023-01-09T13:19:10;12.40;;;8.10;;
65871;SDS011;52653;50.080;21.992;2023-01-09T13:22:09;12.10;;;7.90;;
65871;SDS011;52653;50.080;21.992;2023-01-09T13:25:12;10.10;;;7.70;;
65871;SDS011;52653;50.080;21.992;2023-01-09T13:28:22;10.70;;;7.70;;
65871;SDS011;52653;50.080;21.992;2023-01-09T13:31:14;10.90;;;7.40;;
65871;SDS011;52653;50.080;21.992;2023-01-09T13:34:24;11.80;;;6.80;;
65871;SDS011;52653;50.080;21.992;2023-01-09T13:37:21;9.80;;;6.60;;
65871;SDS011;52653;50.080;21.992;2023-01-09T13:40:26;9.90;;;7.40;;
65871;SDS011;52653;50.080;21.992;2023-01-09T13:43:21;10.50;;;6.90;;
65871;SDS011;52653;50.080;21.992;2023-01-09T13:46:14;12.10;;;7.50;;
65871;SDS011;52653;50.080;21.992;2023-01-09T13:49:02;11.80;;;7.90;;
65871;SDS011;52653;50.080;21.992;2023-01-09T13:52:01;11.10;;;7.40;;
65871;SDS011;52653;50.080;21.992;2023-01-09T13:55:02;10.80;;;7.60;;
65871;SDS011;52653;50.080;21.992;2023-01-09T13:58:22;12.10;;;8.00;;
65871;SDS011;52653;50.080;21.992;2023-01-09T14:04:42;10.20;;;7.10;;
65871;SDS011;52653;50.080;21.992;2023-01-09T14:07:36;11.30;;;7.70;;
65871;SDS011;52653;50.080;21.992;2023-01-09T14:10:32;10.30;;;7.00;;
65871;SDS011;52653;50.080;21.992;2023-01-09T14:13:28;11.40;;;7.70;;
65871;SDS011;52653;50.080;21.992;2023-01-09T14:16:23;10.50;;;7.10;;
65871;SDS011;52653;50.080;21.992;2023-01-09T14:19:28;11.20;;;7.80;;
65871;SDS011;52653;50.080;21.992;2023-01-09T14:22:25;11.10;;;7.80;;
65871;SDS011;52653;50.080;21.992;2023-01-09T14:25:44;11.50;;;7.50;;
65871;SDS011;52653;50.080;21.992;2023-01-09T14:28:39;11.90;;;8.20;;
65871;SDS011;52653;50.080;21.992;2023-01-09T14:31:32;12.50;;;8.70;;
65871;SDS011;52653;50.080;21.992;2023-01-09T14:34:27;12.90;;;8.50;;
65871;SDS011;52653;50.080;21.992;2023-01-09T14:37:25;14.10;;;8.40;;
65871;SDS011;52653;50.080;21.992;2023-01-09T14:40:20;15.00;;;9.70;;
65871;SDS011;52653;50.080;21.992;2023-01-09T14:43:13;11.40;;;6.80;;
65871;SDS011;52653;50.080;21.992;2023-01-09T14:46:16;13.80;;;9.10;;
65871;SDS011;52653;50.080;21.992;2023-01-09T14:49:14;10.30;;;7.30;;
65871;SDS011;52653;50.080;21.992;2023-01-09T14:52:19;10.80;;;7.60;;
65871;SDS011;52653;50.080;21.992;2023-01-09T14:55:13;12.30;;;8.00;;
65871;SDS011;52653;50.080;21.992;2023-01-09T14:58:18;13.10;;;9.10;;
65871;SDS011;52653;50.080;21.992;2023-01-09T15:01:15;11.90;;;8.60;;
65871;SDS011;52653;50.080;21.992;2023-01-09T15:07:23;14.00;;;9.80;;
65871;SDS011;52653;50.080;21.992;2023-01-09T15:10:23;12.90;;;8.90;;
65871;SDS011;52653;50.080;21.992;2023-01-09T15:13:21;14.50;;;9.50;;
65871;SDS011;52653;50.080;21.992;2023-01-09T15:16:13;15.50;;;9.50;;
65871;SDS011;52653;50.080;21.992;2023-01-09T15:19:02;11.90;;;8.90;;
65871;SDS011;52653;50.080;21.992;2023-01-09T15:21:57;14.00;;;8.70;;
65871;SDS011;52653;50.080;21.992;2023-01-09T15:24:51;13.50;;;8.20;;
65871;SDS011;52653;50.080;21.992;2023-01-09T15:27:47;11.70;;;8.30;;
65871;SDS011;52653;50.080;21.992;2023-01-09T15:30:44;13.00;;;8.80;;
65871;SDS011;52653;50.080;21.992;2023-01-09T15:33:41;11.70;;;8.60;;
65871;SDS011;52653;50.080;21.992;2023-01-09T15:36:37;13.60;;;9.60;;
65871;SDS011;52653;50.080;21.992;2023-01-09T15:39:31;14.50;;;9.70;;
65871;SDS011;52653;50.080;21.992;2023-01-09T15:42:28;21.20;;;11.70;;
65871;SDS011;52653;50.080;21.992;2023-01-09T15:45:42;25.30;;;14.20;;
65871;SDS011;52653;50.080;21.992;2023-01-09T15:48:35;16.60;;;12.20;;
65871;SDS011;52653;50.080;21.992;2023-01-09T15:51:27;15.30;;;11.40;;
65871;SDS011;52653;50.080;21.992;2023-01-09T15:54:25;14.40;;;9.90;;
65871;SDS011;52653;50.080;21.992;2023-01-09T15:57:30;14.90;;;9.10;;
65871;SDS011;52653;50.080;21.992;2023-01-09T16:00:32;14.70;;;10.50;;
65871;SDS011;52653;50.080;21.992;2023-01-09T16:03:23;14.30;;;9.70;;
65871;SDS011;52653;50.080;21.992;2023-01-09T16:06:19;14.60;;;11.30;;
65871;SDS011;52653;50.080;21.992;2023-01-09T16:09:13;15.00;;;10.70;;
65871;SDS011;52653;50.080;21.992;2023-01-09T16:12:13;15.70;;;10.90;;
65871;SDS011;52653;50.080;21.992;2023-01-09T16:15:04;15.50;;;10.00;;
65871;SDS011;52653;50.080;21.992;2023-01-09T16:18:14;13.40;;;10.20;;
65871;SDS011;52653;50.080;21.992;2023-01-09T16:21:23;13.50;;;10.00;;
65871;SDS011;52653;50.080;21.992;2023-01-09T16:24:23;13.00;;;9.50;;
65871;SDS011;52653;50.080;21.992;2023-01-09T16:27:24;13.50;;;9.60;;
65871;SDS011;52653;50.080;21.992;2023-01-09T16:30:24;13.20;;;9.00;;
65871;SDS011;52653;50.080;21.992;2023-01-09T16:33:20;14.60;;;9.50;;
65871;SDS011;52653;50.080;21.992;2023-01-09T16:36:15;13.60;;;9.60;;
65871;SDS011;52653;50.080;21.992;2023-01-09T16:39:09;13.00;;;9.40;;
65871;SDS011;52653;50.080;21.992;2023-01-09T16:42:08;12.90;;;9.60;;
65871;SDS011;52653;50.080;21.992;2023-01-09T16:45:18;14.20;;;10.50;;
65871;SDS011;52653;50.080;21.992;2023-01-09T16:48:11;13.70;;;10.10;;
65871;SDS011;52653;50.080;21.992;2023-01-09T16:51:07;13.30;;;10.30;;
65871;SDS011;52653;50.080;21.992;2023-01-09T16:54:06;16.10;;;12.00;;
65871;SDS011;52653;50.080;21.992;2023-01-09T16:56:58;16.10;;;12.20;;
65871;SDS011;52653;50.080;21.992;2023-01-09T16:59:52;17.80;;;11.30;;
65871;SDS011;52653;50.080;21.992;2023-01-09T17:02:41;13.90;;;10.30;;
65871;SDS011;52653;50.080;21.992;2023-01-09T17:05:34;14.80;;;10.30;;
65871;SDS011;52653;50.080;21.992;2023-01-09T17:08:28;14.80;;;10.20;;
65871;SDS011;52653;50.080;21.992;2023-01-09T17:11:23;14.90;;;10.70;;
65871;SDS011;52653;50.080;21.992;2023-01-09T17:14:20;15.50;;;9.90;;
65871;SDS011;52653;50.080;21.992;2023-01-09T17:17:13;16.40;;;10.90;;
65871;SDS011;52653;50.080;21.992;2023-01-09T17:20:13;16.00;;;11.80;;